deutsche Version english version türkçe versiyonu
 

Current weather

Jun 25, 2017 - 07:50 PM EDT / 2017.06.25 2350 UTC


Wind: Variable at 2 MPH (2 KT):0

Visibility: greater than 7 mile(s):0
Temperature: 73 F (23 C)
Dew Point: 71 F (22 C)
Relative Humidity: 94%
Pressure (altimeter): 29.74 in. Hg (1007 hPa)
ob: LTAF 252350Z VRB02KT CAVOK 23/22 Q1007 NOSIG

 

 
Copyright 2015© donnerwetter.de GmbH. All rights reserved.
Contact |  terms of use |  Legal notice